Formoso, Kansas
Current Conditions -  °F | °C
As of 11:55 PM on Monday 20 Oct 2014 (Local Time) from KCNK Reporting Station
Clear Clear  
Wind Chill: 54°   Ceiling: Unl
Heat Index: 54°   Visibility: 10mi
Dew Point: 42°   Wind: 6mph
Humidity: 64%   Direction: 150°SSE
Pressure: 30.07"   Gusts: NA
Location:  39.78°N, 97.99°W
Report Text: KCNK 210455Z AUTO 15005KT 10SM CLR 12/06 A3007 RMK AO2 SLP176 T01220056
Loading
Personal Weather Stations






























Interactive Weather Map
Tropical Storm Tracking
New forecast layout! Learn more

10-Day Weather Forecast

Advertisements
Track Severe Weather on mobile